Time;durP1;ratioP1;P1;durP2;ratioP2;P2;SDS_P1;SDS_P2;PMS_P1;PMS_P2;Temp;Humidity;BMP_temperature;BMP_pressure;BME280_temperature;BME280_humidity;BME280_pressure;Samples;Min_cycle;Max_cycle;Signal;HPM_P1;HPM_P2
2022/04/18 00:00:25;;;;;;;4.30;2.47;;;;;;;3.75;65.94;102370.13;5028849;28;20272;-68
2022/04/18 00:02:51;;;;;;;7.60;3.95;;;;;;;3.73;66.15;102358.81;5056422;28;20062;-62
2022/04/18 00:05:19;;;;;;;7.73;3.13;;;;;;;3.80;65.75;102362.88;5071471;28;20496;-65
2022/04/18 00:07:47;;;;;;;4.13;2.90;;;;;;;3.82;65.33;102368.06;5073621;28;20036;-64
2022/04/18 00:10:13;;;;;;;6.80;3.75;;;;;;;3.78;64.12;102348.91;5075234;28;20044;-62
2022/04/18 00:12:38;;;;;;;5.50;3.30;;;;;;;3.84;64.17;102345.97;5075432;28;20488;-61
2022/04/18 00:15:04;;;;;;;4.70;3.30;;;;;;;3.90;63.99;102345.63;5075163;28;20492;-62
2022/04/18 00:17:34;;;;;;;6.00;3.27;;;;;;;3.91;63.92;102347.31;5075294;28;20423;-63
2022/04/18 00:20:00;;;;;;;6.10;3.30;;;;;;;3.90;64.07;102340.34;5075292;28;20288;-64
2022/04/18 00:22:25;;;;;;;5.87;2.77;;;;;;;3.92;63.94;102342.91;5075298;28;20259;-65
2022/04/18 00:24:51;;;;;;;4.17;2.50;;;;;;;3.82;63.98;102332.00;5074019;28;20488;-62
2022/04/18 00:27:18;;;;;;;5.23;2.90;;;;;;;3.83;63.98;102331.06;5075027;28;20465;-63
2022/04/18 00:29:43;;;;;;;4.40;2.87;;;;;;;3.83;64.22;102332.84;5074798;28;20287;-64
2022/04/18 00:32:09;;;;;;;4.40;2.97;;;;;;;3.84;64.22;102335.41;5074955;28;20584;-62
2022/04/18 00:34:35;;;;;;;6.37;3.10;;;;;;;3.86;64.09;102338.81;5075160;28;20415;-63
2022/04/18 00:37:00;;;;;;;7.70;3.13;;;;;;;3.69;64.02;102315.13;5075375;28;20037;-60
2022/04/18 00:39:25;;;;;;;6.00;3.53;;;;;;;3.85;64.03;102326.56;5075004;28;20106;-62
2022/04/18 00:41:51;;;;;;;3.43;3.10;;;;;;;3.86;63.78;102330.91;5074875;28;20035;-63
2022/04/18 00:44:16;;;;;;;3.67;3.20;;;;;;;3.85;63.47;102337.13;5074777;28;20513;-63
2022/04/18 00:46:42;;;;;;;4.03;2.80;;;;;;;3.82;63.14;102337.28;5074872;28;20040;-62
2022/04/18 00:49:07;;;;;;;5.30;2.97;;;;;;;3.79;62.94;102331.31;5075756;28;20040;-63
2022/04/18 00:51:34;;;;;;;3.10;2.50;;;;;;;3.81;62.21;102335.56;5074762;28;20037;-63
2022/04/18 00:53:59;;;;;;;3.80;3.07;;;;;;;3.83;63.02;102331.06;5074962;28;20082;-62
2022/04/18 00:56:25;;;;;;;4.10;3.07;;;;;;;3.83;63.23;102333.72;5074546;28;20262;-61
2022/04/18 00:58:51;;;;;;;7.83;3.47;;;;;;;3.81;63.23;102332.94;5074442;28;20082;-62
2022/04/18 01:01:18;;;;;;;6.03;3.27;;;;;;;3.74;63.33;102319.22;5074610;28;20025;-61
2022/04/18 01:03:44;;;;;;;5.27;3.37;;;;;;;3.76;63.90;102327.06;5074937;28;20457;-61
2022/04/18 01:06:10;;;;;;;4.23;3.17;;;;;;;3.72;63.28;102315.81;5075005;28;20642;-64
2022/04/18 01:08:36;;;;;;;4.83;2.93;;;;;;;3.70;63.45;102315.03;5074423;28;20638;-62
2022/04/18 01:11:05;;;;;;;6.83;2.70;;;;;;;3.56;63.45;102298.25;5073064;28;20275;-63
2022/04/18 01:13:42;;;;;;;7.65;3.47;;;;;;;3.70;63.88;102333.47;5074250;28;20040;-64
2022/04/18 01:16:08;;;;;;;5.17;3.10;;;;;;;3.64;63.78;102314.50;5074425;28;20051;-61
2022/04/18 01:18:36;;;;;;;4.97;2.77;;;;;;;3.65;63.71;102318.84;5073879;28;20650;-63
2022/04/18 01:21:03;;;;;;;4.17;2.60;;;;;;;3.62;63.90;102324.28;5073421;28;20282;-60
2022/04/18 01:23:29;;;;;;;6.50;3.83;;;;;;;3.61;63.75;102317.31;5074083;28;20262;-61
2022/04/18 01:31:22;;;;;;;4.90;3.13;;;;;;;3.70;63.85;102322.94;5074310;28;20271;-62
2022/04/18 01:33:47;;;;;;;6.73;3.10;;;;;;;3.66;64.03;102315.28;5073787;28;20815;-61
2022/04/18 01:36:13;;;;;;;5.87;3.00;;;;;;;3.61;64.22;102306.78;5073733;28;20051;-61
2022/04/18 01:38:38;;;;;;;3.97;3.10;;;;;;;3.65;64.11;102311.81;5074191;28;20039;-64
2022/04/18 01:41:04;;;;;;;5.67;3.10;;;;;;;3.67;64.49;102301.19;5073784;28;20032;-64
2022/04/18 01:43:29;;;;;;;6.10;2.80;;;;;;;3.67;64.42;102295.91;5073945;28;20040;-63
2022/04/18 01:45:55;;;;;;;3.80;3.00;;;;;;;3.71;64.30;102314.09;5073691;28;20078;-63
2022/04/18 01:48:20;;;;;;;5.27;3.60;;;;;;;3.63;64.53;102304.91;5073795;28;20039;-61
2022/04/18 01:50:46;;;;;;;9.53;3.53;;;;;;;3.60;64.81;102298.03;5073412;28;20036;-64
2022/04/18 01:53:12;;;;;;;14.43;4.27;;;;;;;3.54;64.93;102284.31;5073335;28;20032;-63
2022/04/18 01:55:37;;;;;;;8.87;4.23;;;;;;;3.60;64.74;102305.06;5073803;28;20042;-61
2022/04/18 01:58:05;;;;;;;5.97;3.00;;;;;;;3.54;64.67;102294.88;5073225;28;20263;-62
2022/04/18 02:00:32;;;;;;;7.20;3.33;;;;;;;3.53;64.95;102282.63;5073091;28;20036;-63
2022/04/18 02:02:58;;;;;;;6.60;3.63;;;;;;;3.39;64.64;102257.84;5073367;28;20275;-62
2022/04/18 02:05:23;;;;;;;5.17;3.10;;;;;;;3.57;64.56;102287.66;5073324;28;20354;-63
2022/04/18 02:07:49;;;;;;;6.70;3.40;;;;;;;3.48;65.12;102282.88;5073464;28;20064;-62
2022/04/18 02:10:14;;;;;;;14.63;5.27;;;;;;;3.52;64.61;102280.91;5073809;28;20040;-62
2022/04/18 02:12:40;;;;;;;5.27;3.17;;;;;;;3.50;64.78;102288.91;5073281;28;20047;-63
2022/04/18 02:15:06;;;;;;;6.20;3.70;;;;;;;3.47;65.18;102281.16;5073139;28;20381;-62
2022/04/18 02:17:33;;;;;;;4.83;3.37;;;;;;;3.40;65.25;102287.66;5072857;28;20059;-62
2022/04/18 02:19:59;;;;;;;5.63;3.43;;;;;;;3.40;65.32;102285.88;5072860;28;20828;-62
2022/04/18 02:22:24;;;;;;;7.57;3.20;;;;;;;3.39;65.14;102288.59;5073186;28;20345;-63
2022/04/18 02:24:50;;;;;;;5.17;3.40;;;;;;;3.36;65.30;102283.50;5073038;28;20480;-65
2022/04/18 02:27:16;;;;;;;7.33;3.87;;;;;;;3.34;65.92;102290.63;5073016;28;20028;-61
2022/04/18 02:29:44;;;;;;;6.63;3.50;;;;;;;3.34;65.51;102293.25;5072825;28;20295;-63
2022/04/18 02:34:54;;;;;;;2.97;2.50;;;;;;;3.27;66.55;102279.56;5072898;28;20102;-61
2022/04/18 02:37:19;;;;;;;2.47;2.20;;;;;;;3.05;66.49;102240.31;5072904;28;20796;-62
2022/04/18 02:39:46;;;;;;;2.70;2.50;;;;;;;3.18;67.49;102274.75;5072849;28;20043;-64
2022/04/18 02:42:11;;;;;;;5.13;3.23;;;;;;;3.10;67.66;102279.53;5072682;28;20078;-63
2022/04/18 02:44:37;;;;;;;2.60;2.30;;;;;;;3.08;67.86;102276.13;5072607;28;20275;-63
2022/04/18 02:47:02;;;;;;;10.17;3.23;;;;;;;3.07;68.00;102277.91;5072501;28;20457;-62
2022/04/18 02:49:28;;;;;;;6.23;2.80;;;;;;;3.01;67.99;102248.44;5072498;28;20032;-63
2022/04/18 02:51:53;;;;;;;5.70;2.63;;;;;;;3.23;67.63;102280.66;5072799;28;20067;-65
2022/04/18 02:54:19;;;;;;;2.67;2.37;;;;;;;3.26;67.30;102275.22;5072873;28;20079;-62
2022/04/18 02:56:44;;;;;;;6.90;2.93;;;;;;;3.41;66.90;102286.72;5072605;28;20116;-62
2022/04/18 02:59:10;;;;;;;7.07;4.00;;;;;;;3.39;66.37;102276.28;5072349;28;20036;-62
2022/04/18 03:01:35;;;;;;;4.93;2.97;;;;;;;3.46;65.84;102270.69;5072970;28;20487;-61
2022/04/18 03:04:01;;;;;;;5.60;2.73;;;;;;;3.52;65.95;102273.88;5072938;28;20510;-63
2022/04/18 03:06:26;;;;;;;4.93;2.60;;;;;;;3.54;65.67;102269.38;5072521;28;20189;-63
2022/04/18 03:08:52;;;;;;;4.00;2.80;;;;;;;3.56;65.58;102261.38;5072902;28;20039;-61
2022/04/18 03:11:17;;;;;;;5.37;3.00;;;;;;;3.54;65.94;102252.72;5072592;28;20547;-61
2022/04/18 03:13:46;;;;;;;6.53;2.80;;;;;;;3.52;66.16;102254.59;5072133;28;20038;-62
2022/04/18 03:16:13;;;;;;;7.30;2.90;;;;;;;3.53;66.21;102245.75;5071895;28;20033;-63
2022/04/18 03:18:40;;;;;;;5.83;2.87;;;;;;;3.55;66.15;102243.88;5072321;28;20451;-64
2022/04/18 03:21:16;;;;;;;5.07;2.97;;;;;;;3.56;66.04;102245.59;5073191;28;20644;-65
2022/04/18 03:23:52;;;;;;;4.20;3.57;;;;;;;3.63;66.10;102254.84;5072048;28;20297;-63
2022/04/18 03:26:23;;;;;;;5.57;2.77;;;;;;;3.67;66.28;102246.69;5071474;28;20746;-64
2022/04/18 03:28:49;;;;;;;8.40;3.42;;;;;;;3.65;66.53;102239.81;5071652;28;20293;-64
2022/04/18 03:31:14;;;;;;;8.10;3.27;;;;;;;3.78;65.80;102253.19;5071756;28;20500;-63
2022/04/18 03:33:43;;;;;;;4.00;2.80;;;;;;;3.84;65.91;102250.22;5071720;28;20032;-65
2022/04/18 03:41:39;;;;;;;6.53;3.10;;;;;;;3.93;65.67;102247.09;5071985;28;20758;-64
2022/04/18 03:44:05;;;;;;;7.17;2.87;;;;;;;3.97;66.05;102260.00;5071473;28;20263;-63
2022/04/18 03:46:30;;;;;;;6.10;3.13;;;;;;;3.95;66.40;102248.69;5071823;28;20537;-62
2022/04/18 03:48:56;;;;;;;3.53;3.07;;;;;;;3.97;66.65;102251.25;5071641;28;20185;-64
2022/04/18 03:51:21;;;;;;;10.70;4.43;;;;;;;4.05;65.95;102249.06;5071383;28;20127;-63
2022/04/18 03:53:47;;;;;;;6.90;3.53;;;;;;;4.11;66.60;102245.25;5071808;28;20032;-63
2022/04/18 03:56:12;;;;;;;6.10;3.90;;;;;;;4.10;65.90;102246.19;5071777;28;20067;-63
2022/04/18 03:58:37;;;;;;;10.87;3.97;;;;;;;4.17;66.03;102240.47;5071694;28;20040;-64
2022/04/18 04:01:03;;;;;;;11.40;3.90;;;;;;;4.14;66.01;102243.28;5070500;28;20033;-63
2022/04/18 04:03:28;;;;;;;5.27;4.03;;;;;;;4.15;66.57;102249.41;5071611;28;20124;-62
2022/04/18 04:05:54;;;;;;;5.73;3.40;;;;;;;4.22;66.58;102246.34;5071535;28;20086;-65
2022/04/18 04:08:22;;;;;;;10.23;4.00;;;;;;;4.26;66.24;102239.09;5071390;28;20040;-63
2022/04/18 04:10:50;;;;;;;8.70;3.50;;;;;;;4.31;66.81;102237.91;5069980;28;20052;-65
2022/04/18 04:13:16;;;;;;;17.50;4.27;;;;;;;4.35;66.20;102236.81;5071580;28;20479;-65
2022/04/18 04:15:42;;;;;;;9.53;3.93;;;;;;;4.40;66.11;102228.63;5071425;28;20267;-63
2022/04/18 04:18:08;;;;;;;16.47;4.07;;;;;;;4.48;65.61;102229.03;5071540;28;20335;-71
2022/04/18 04:20:33;;;;;;;13.80;4.60;;;;;;;4.53;66.22;102229.63;5071462;28;20510;-68
2022/04/18 04:22:59;;;;;;;8.57;4.43;;;;;;;4.50;65.85;102235.06;5071269;28;20454;-69
2022/04/18 04:25:24;;;;;;;7.33;4.47;;;;;;;4.54;65.96;102230.47;5072285;28;20037;-65
2022/04/18 04:27:50;;;;;;;9.10;3.73;;;;;;;4.54;65.74;102220.78;5071498;28;20064;-67
2022/04/18 04:30:15;;;;;;;14.00;4.13;;;;;;;4.52;65.98;102217.38;5070173;28;20101;-72
2022/04/18 04:33:02;;;;;;;19.37;6.70;;;;;;;4.59;66.15;102229.25;5070134;28;20044;-71
2022/04/18 04:35:44;;;;;;;10.73;4.20;;;;;;;4.39;65.91;102190.00;5069979;28;20785;-69
2022/04/18 04:38:12;;;;;;;11.57;4.35;;;;;;;4.27;66.25;102159.03;5070900;28;20271;-62
2022/04/18 04:40:44;;;;;;;16.13;5.43;;;;;;;4.70;65.97;102209.34;5073155;28;20033;-67
2022/04/18 04:43:12;;;;;;;13.33;4.10;;;;;;;4.80;65.60;102218.41;5052583;28;20047;-70
2022/04/18 04:45:41;;;;;;;11.97;4.63;;;;;;;4.86;64.82;102215.41;5069522;28;20273;-66
2022/04/18 04:48:09;;;;;;;8.30;3.77;;;;;;;4.88;64.80;102210.88;5070261;28;20365;-68
2022/04/18 04:50:34;;;;;;;11.97;4.23;;;;;;;4.98;64.96;102210.28;5071025;28;20044;-63
2022/04/18 04:53:12;;;;;;;12.83;5.10;;;;;;;5.02;64.94;102216.22;5069733;28;20275;-66
2022/04/18 04:55:41;;;;;;;12.07;4.87;;;;;;;5.12;64.48;102208.59;5073976;28;20278;-68
2022/04/18 04:58:09;;;;;;;15.10;4.80;;;;;;;5.32;64.18;102212.66;5068534;28;20052;-65
2022/04/18 05:00:35;;;;;;;14.03;5.70;;;;;;;5.51;63.29;102207.97;5074151;28;20868;-66
2022/04/18 05:03:05;;;;;;;10.63;4.80;;;;;;;5.71;62.57;102209.34;5073254;28;20263;-61
2022/04/18 05:05:31;;;;;;;15.17;5.77;;;;;;;5.74;63.21;102211.81;5071495;28;20271;-65
2022/04/18 05:07:59;;;;;;;15.07;4.63;;;;;;;5.68;61.91;102205.09;5073611;28;20345;-64
2022/04/18 05:10:25;;;;;;;9.85;5.57;;;;;;;5.80;62.38;102203.50;5074115;28;20295;-69
2022/04/18 05:12:50;;;;;;;18.17;4.93;;;;;;;5.93;62.52;102208.88;5072422;28;20120;-63
2022/04/18 05:15:19;;;;;;;20.47;5.57;;;;;;;5.92;61.98;102199.25;5073898;28;20569;-68
2022/04/18 05:17:54;;;;;;;14.45;6.40;;;;;;;5.97;61.10;102207.75;5072361;28;20048;-65
2022/04/18 05:20:39;;;;;;;8.13;5.40;;;;;;;6.01;61.12;102207.44;5072522;28;20041;-61
2022/04/18 05:23:05;;;;;;;13.20;4.80;;;;;;;6.06;61.34;102205.34;5072086;28;20281;-63
2022/04/18 05:25:37;;;;;;;6.97;4.90;;;;;;;6.01;62.14;102204.81;5072008;28;20263;-68
2022/04/18 05:28:03;;;;;;;18.07;5.63;;;;;;;6.09;61.11;102209.63;5074120;28;20044;-66
2022/04/18 05:30:29;;;;;;;17.63;4.73;;;;;;;6.16;61.12;102200.34;5073079;28;20356;-62
2022/04/18 05:32:55;;;;;;;19.77;7.03;;;;;;;6.21;60.85;102192.97;5073880;28;20064;-66
2022/04/18 05:35:24;;;;;;;17.27;6.13;;;;;;;6.38;61.19;102205.09;5074219;28;20328;-64
2022/04/18 05:37:52;;;;;;;16.30;5.22;;;;;;;6.39;60.10;102175.88;5073633;28;20048;-68
2022/04/18 05:40:18;;;;;;;12.68;5.20;;;;;;;6.44;60.17;102141.19;5073775;28;20400;-71
2022/04/18 05:42:44;;;;;;;20.40;5.67;;;;;;;6.84;59.94;102194.94;5056226;28;20508;-69
2022/04/18 05:45:09;;;;;;;18.87;5.33;;;;;;;6.72;59.89;102193.13;5073942;28;20396;-71
2022/04/18 05:47:41;;;;;;;18.00;5.70;;;;;;;6.54;60.36;102184.59;5073989;28;20471;-74
2022/04/18 05:50:07;;;;;;;21.33;5.17;;;;;;;6.50;60.96;102196.34;5073763;28;20125;-63
2022/04/18 05:52:35;;;;;;;12.03;5.30;;;;;;;6.60;60.40;102186.81;5071679;28;20741;-61
2022/04/18 05:55:01;;;;;;;13.25;5.82;;;;;;;6.69;59.81;102186.25;5074281;28;20044;-63
2022/04/18 05:57:26;;;;;;;19.10;5.07;;;;;;;6.84;59.64;102194.94;5073721;28;20499;-60
2022/04/18 05:59:52;;;;;;;11.67;4.73;;;;;;;6.93;59.79;102188.16;5073331;28;20043;-64
2022/04/18 06:02:18;;;;;;;8.10;4.90;;;;;;;6.93;59.58;102189.00;5073128;28;20566;-64
2022/04/18 06:04:44;;;;;;;9.17;5.47;;;;;;;6.93;58.96;102196.94;5073057;28;20492;-65
2022/04/18 06:07:09;;;;;;;12.30;6.77;;;;;;;6.80;59.69;102190.81;5072562;28;20032;-63
2022/04/18 06:09:37;;;;;;;19.87;5.43;;;;;;;6.91;59.66;102198.84;5074254;28;20402;-64
2022/04/18 06:12:07;;;;;;;13.80;4.85;;;;;;;7.03;59.59;102191.91;5073408;28;20090;-64
2022/04/18 06:14:35;;;;;;;8.17;4.80;;;;;;;7.07;59.22;102183.63;5070040;28;20036;-62
2022/04/18 06:17:01;;;;;;;13.38;5.20;;;;;;;6.93;59.53;102183.72;5052867;28;20041;-67
2022/04/18 06:19:51;;;;;;;13.80;5.60;;;;;;;6.78;60.43;102182.97;5053195;28;20566;-67
2022/04/18 06:22:17;;;;;;;9.90;5.07;;;;;;;6.47;60.98;102170.94;5053408;28;20310;-67
2022/04/18 06:24:51;;;;;;;7.17;4.40;;;;;;;6.62;61.09;102194.66;5053491;28;20049;-67
2022/04/18 06:27:19;;;;;;;12.33;5.03;;;;;;;6.59;61.29;102187.78;5051816;28;20094;-69
2022/04/18 06:29:45;;;;;;;13.60;5.53;;;;;;;6.58;61.76;102175.50;5051658;28;20037;-66
2022/04/18 06:32:14;;;;;;;9.17;5.17;;;;;;;6.68;61.33;102181.03;5067188;28;20139;-71
2022/04/18 06:34:41;;;;;;;12.23;6.70;;;;;;;6.74;61.40;102170.03;5052700;28;20083;-67
2022/04/18 06:37:10;;;;;;;10.23;5.27;;;;;;;6.71;61.93;102167.59;5052990;28;20060;-67
2022/04/18 06:39:38;;;;;;;10.38;4.47;;;;;;;6.81;62.02;102176.59;5053262;28;20029;-69
2022/04/18 06:42:05;;;;;;;10.38;5.28;;;;;;;6.73;61.77;102152.47;5053638;28;20037;-68
2022/04/18 06:44:30;;;;;;;16.50;5.27;;;;;;;6.64;62.21;102163.66;5050987;28;20041;-67
2022/04/18 06:46:59;;;;;;;13.43;5.30;;;;;;;6.42;62.96;102154.50;5052146;28;20040;-65
2022/04/18 06:49:24;;;;;;;16.60;5.15;;;;;;;6.36;62.90;102157.56;5052472;28;20106;-67
2022/04/18 06:51:52;;;;;;;13.95;4.85;;;;;;;6.38;62.88;102160.13;5052410;28;20116;-64
2022/04/18 06:54:18;;;;;;;10.13;4.20;;;;;;;6.38;62.93;102174.19;5052258;28;20064;-63
2022/04/18 06:57:04;;;;;;;14.13;4.90;;;;;;;6.43;62.75;102176.53;5052491;28;20043;-71
2022/04/18 06:59:37;;;;;;;12.70;4.53;;;;;;;6.44;62.83;102171.13;5052398;28;20102;-69
2022/04/18 07:02:03;;;;;;;11.80;4.67;;;;;;;6.64;62.91;102175.09;5052405;28;20071;-67
2022/04/18 07:04:28;;;;;;;12.57;4.87;;;;;;;6.82;62.05;102171.22;5052087;28;20488;-65
2022/04/18 07:06:54;;;;;;;11.90;4.80;;;;;;;6.96;61.34;102170.28;5052094;28;20095;-67
2022/04/18 07:09:20;;;;;;;8.30;3.60;;;;;;;6.98;61.40;102157.78;5051957;28;20028;-68
2022/04/18 07:11:46;;;;;;;10.30;3.27;;;;;;;7.02;60.94;102163.72;5051138;28;20037;-65
2022/04/18 07:14:14;;;;;;;15.13;5.10;;;;;;;7.03;60.68;102160.97;5052023;28;20059;-68
2022/04/18 07:16:44;;;;;;;10.33;5.03;;;;;;;7.01;61.35;102168.16;5051687;28;20371;-66
2022/04/18 07:19:10;;;;;;;15.63;4.47;;;;;;;7.06;61.69;102166.03;5051355;28;20528;-67
2022/04/18 07:21:36;;;;;;;10.50;4.03;;;;;;;7.13;61.78;102161.16;5051461;28;20048;-67
2022/04/18 07:24:08;;;;;;;27.60;4.65;;;;;;;7.02;60.86;102156.63;5050345;28;20044;-70
2022/04/18 07:26:34;;;;;;;;;;;;;;;7.10;61.71;102171.97;5052435;28;20454;-64
2022/04/18 07:29:00;;;;;;;23.83;4.20;;;;;;;7.04;61.88;102162.66;5051778;28;19917;-68
2022/04/18 07:31:29;;;;;;;17.00;9.90;;;;;;;7.08;61.39;102158.00;5051613;28;20091;-64
2022/04/18 07:33:54;;;;;;;17.98;6.82;;;;;;;7.22;60.46;102168.47;5051707;28;20112;-67
2022/04/18 07:36:20;;;;;;;16.33;5.10;;;;;;;7.34;60.29;102174.72;5051730;28;20421;-69
2022/04/18 07:38:52;;;;;;;11.13;4.60;;;;;;;7.62;60.01;102169.19;5051550;28;20135;-71
2022/04/18 07:41:28;;;;;;;21.20;4.40;;;;;;;7.85;58.54;102159.56;5051973;28;20116;-67
2022/04/18 07:43:56;;;;;;;18.77;4.97;;;;;;;8.02;58.46;102161.84;5052041;28;20041;-69
2022/04/18 07:46:24;;;;;;;8.40;4.10;;;;;;;7.98;58.17;102117.91;5050341;28;20048;-62
2022/04/18 07:48:57;;;;;;;9.63;4.63;;;;;;;8.34;57.90;102162.16;5050675;28;20037;-67
2022/04/18 07:51:34;;;;;;;7.10;4.27;;;;;;;8.42;57.73;102153.63;5071072;28;20082;-68
2022/04/18 07:54:14;;;;;;;10.93;4.43;;;;;;;8.32;57.51;102161.38;5071643;28;20044;-67
2022/04/18 07:56:40;;;;;;;11.07;5.40;;;;;;;8.19;57.96;102150.00;5069835;28;20078;-68
2022/04/18 07:59:06;;;;;;;10.83;4.93;;;;;;;8.31;57.87;102167.66;5060074;28;20094;-69
2022/04/18 08:01:32;;;;;;;9.10;4.57;;;;;;;8.40;57.70;102160.03;5071074;28;20076;-66
2022/04/18 08:04:02;;;;;;;11.53;4.70;;;;;;;8.50;56.80;102155.72;5071113;28;20468;-65
2022/04/18 08:06:29;;;;;;;9.83;4.90;;;;;;;8.73;57.18;102152.16;5068374;28;20060;-67
2022/04/18 08:08:55;;;;;;;9.67;4.60;;;;;;;8.98;55.65;102157.31;5069757;28;20036;-66
2022/04/18 08:11:21;;;;;;;16.10;4.50;;;;;;;9.14;55.19;102148.13;5070427;28;20033;-68
2022/04/18 08:13:48;;;;;;;9.10;4.87;;;;;;;9.15;55.00;102140.03;5069140;28;20044;-71
2022/04/18 08:16:17;;;;;;;12.20;5.43;;;;;;;9.38;55.26;102154.19;5070393;28;20033;-70
2022/04/18 08:18:44;;;;;;;13.17;6.57;;;;;;;9.35;54.83;102149.09;5070454;28;20135;-65
2022/04/18 08:21:19;;;;;;;14.20;4.80;;;;;;;9.32;55.08;102144.03;5068861;28;20472;-70
2022/04/18 08:23:47;;;;;;;13.43;4.90;;;;;;;9.41;54.43;102148.63;5071232;28;20036;-69
2022/04/18 08:26:12;;;;;;;15.83;5.40;;;;;;;9.38;54.91;102148.88;5071443;28;20071;-69
2022/04/18 08:28:39;;;;;;;16.10;5.33;;;;;;;9.37;54.38;102136.53;5071978;28;20028;-67
2022/04/18 08:31:04;;;;;;;12.20;5.60;;;;;;;9.51;54.59;102143.41;5074692;28;20037;-68
2022/04/18 08:33:30;;;;;;;9.17;4.47;;;;;;;9.54;53.88;102149.34;5074600;28;20058;-67
2022/04/18 08:35:59;;;;;;;20.20;3.90;;;;;;;9.47;54.01;102142.81;5076184;28;20089;-69
2022/04/18 08:38:36;;;;;;;12.10;5.63;;;;;;;9.48;54.71;102146.31;5075064;28;20058;-68
2022/04/18 08:41:09;;;;;;;15.77;4.63;;;;;;;9.50;53.93;102137.25;5074555;28;20032;-70
2022/04/18 08:43:45;;;;;;;15.93;4.47;;;;;;;9.51;54.07;102122.97;5057588;28;20048;-68
2022/04/18 08:46:11;;;;;;;9.87;3.93;;;;;;;9.54;53.35;102128.09;5074773;28;20093;-66
2022/04/18 08:54:23;;;;;;;11.63;4.23;;;;;;;9.54;53.76;102130.75;5072517;28;20032;-70
2022/04/18 08:56:50;;;;;;;19.63;4.90;;;;;;;9.61;53.54;102134.59;5054719;28;20524;-64
2022/04/18 08:59:15;;;;;;;11.50;4.13;;;;;;;9.63;53.28;102114.03;5071750;28;20502;-67
2022/04/18 09:01:50;;;;;;;14.97;4.17;;;;;;;9.73;53.19;102137.22;5074150;28;20048;-66
2022/04/18 09:04:24;;;;;;;18.67;6.27;;;;;;;9.83;52.90;102123.06;5072084;28;20111;-66
2022/04/18 09:06:54;;;;;;;10.77;3.53;;;;;;;9.89;52.60;102121.72;5074607;28;20035;-70
2022/04/18 09:09:27;;;;;;;22.10;4.55;;;;;;;9.96;52.12;102122.91;5074182;28;20492;-67
2022/04/18 09:11:53;;;;;;;10.07;3.37;;;;;;;10.16;51.93;102129.25;5053941;28;20033;-69
2022/04/18 09:14:22;;;;;;;8.30;4.03;;;;;;;10.37;51.20;102126.66;5073970;28;20024;-66
2022/04/18 09:16:54;;;;;;;17.40;4.67;;;;;;;10.61;50.51;102127.25;5073725;28;20040;-65
2022/04/18 09:19:22;;;;;;;11.87;4.93;;;;;;;10.81;49.91;102122.91;5053694;28;20032;-66
2022/04/18 09:21:54;;;;;;;;;;;;;;;11.04;49.55;102124.47;5055996;28;20420;-65
2022/04/18 09:24:37;;;;;;;6.53;3.20;;;;;;;11.16;49.18;102119.88;5071529;28;19967;-64
2022/04/18 09:27:12;;;;;;;12.33;3.33;;;;;;;11.23;48.59;102118.34;5071298;28;20036;-68
2022/04/18 09:29:41;;;;;;;12.00;3.70;;;;;;;11.16;49.41;102120.72;5070661;28;20055;-70
2022/04/18 09:32:13;;;;;;;8.80;3.50;;;;;;;11.39;48.69;102128.53;5072875;28;20103;-67
2022/04/18 09:34:40;;;;;;;9.13;3.17;;;;;;;11.60;47.87;102128.47;5073829;28;20024;-64
2022/04/18 09:37:17;;;;;;;6.30;3.10;;;;;;;11.69;47.60;102111.63;5073575;28;20135;-65
2022/04/18 09:39:50;;;;;;;14.52;4.30;;;;;;;11.72;47.29;102111.34;5070501;28;20521;-67
2022/04/18 09:42:15;;;;;;;11.40;3.50;;;;;;;11.59;47.24;102121.44;5073391;28;20036;-66
2022/04/18 09:44:42;;;;;;;14.50;6.63;;;;;;;11.58;47.79;102112.59;5073377;28;20420;-66
2022/04/18 09:47:14;;;;;;;17.27;4.17;;;;;;;11.65;47.37;102115.56;5073524;28;20039;-66
2022/04/18 09:49:40;;;;;;;6.70;3.67;;;;;;;11.77;47.06;102112.63;5072882;28;20067;-65
2022/04/18 09:52:10;;;;;;;7.43;4.07;;;;;;;11.85;46.74;102111.97;5073253;28;20479;-66
2022/04/18 09:54:35;;;;;;;10.27;3.60;;;;;;;11.77;46.66;102115.28;5072180;28;20048;-68
2022/04/18 09:57:08;;;;;;;9.07;3.50;;;;;;;11.72;46.93;102114.03;5071043;28;20136;-69
2022/04/18 09:59:34;;;;;;;9.93;3.00;;;;;;;11.82;46.73;102109.56;5073393;28;20055;-67
2022/04/18 10:02:00;;;;;;;10.53;3.70;;;;;;;11.85;46.28;102095.94;5072804;28;20105;-68
2022/04/18 10:04:26;;;;;;;11.37;3.47;;;;;;;11.79;46.65;102104.50;5071711;28;20440;-64
2022/04/18 10:06:52;;;;;;;15.27;3.93;;;;;;;11.81;46.60;102094.53;5072836;28;20039;-66
2022/04/18 10:09:19;;;;;;;10.00;3.43;;;;;;;11.89;46.42;102092.03;5073033;28;20623;-66
2022/04/18 10:11:45;;;;;;;16.37;3.23;;;;;;;11.95;46.47;102101.31;5073016;28;20094;-66
2022/04/18 10:14:11;;;;;;;6.23;3.30;;;;;;;11.97;46.43;102094.84;5072958;28;21048;-63
2022/04/18 10:16:38;;;;;;;8.10;4.50;;;;;;;12.05;46.03;102081.66;5072289;28;20032;-68
2022/04/18 10:19:30;;;;;;;8.37;2.87;;;;;;;12.05;46.60;102095.00;5072294;28;20136;-64
2022/04/18 10:22:16;;;;;;;10.63;3.33;;;;;;;11.77;46.48;102098.44;5072438;28;20049;-69
2022/04/18 10:25:01;;;;;;;14.47;3.63;;;;;;;11.72;47.27;102100.69;5072408;28;20032;-66
2022/04/18 10:27:38;;;;;;;4.63;2.90;;;;;;;11.76;46.86;102102.94;5071053;28;20047;-66
2022/04/18 10:30:05;;;;;;;78.03;8.77;;;;;;;11.83;47.24;102086.41;5072514;28;20035;-62
2022/04/18 10:32:32;;;;;;;8.53;3.40;;;;;;;11.93;46.27;102093.44;5072516;28;20036;-66
2022/04/18 10:35:03;;;;;;;12.23;2.93;;;;;;;11.93;46.28;102072.09;5072449;28;20478;-63
2022/04/18 10:37:30;;;;;;;6.07;3.20;;;;;;;11.99;46.36;102081.38;5070181;28;20063;-62
2022/04/18 10:40:07;;;;;;;21.10;3.43;;;;;;;11.96;46.82;102082.50;5072162;28;20098;-63
2022/04/18 10:42:40;;;;;;;18.43;4.17;;;;;;;12.12;46.37;102086.41;5052781;28;20045;-68
2022/04/18 10:45:19;;;;;;;10.93;3.17;;;;;;;12.21;46.23;102085.59;5052745;28;20037;-61
2022/04/18 10:48:05;;;;;;;8.27;3.53;;;;;;;12.07;46.43;102076.16;5052441;28;20040;-62
2022/04/18 10:50:41;;;;;;;13.90;3.20;;;;;;;12.24;46.49;102080.81;5052496;28;20037;-61
2022/04/18 10:53:34;;;;;;;9.50;2.90;;;;;;;12.42;45.94;102075.56;5052450;28;20040;-63
2022/04/18 10:56:00;;;;;;;10.27;3.67;;;;;;;12.41;46.31;102077.41;5045960;28;20041;-62
2022/04/18 10:58:29;;;;;;;6.17;2.70;;;;;;;12.41;46.15;102074.72;5052346;28;20451;-59
2022/04/18 11:00:57;;;;;;;11.27;4.33;;;;;;;12.44;46.19;102062.09;5050606;28;20040;-61
2022/04/18 11:03:58;;;;;;;8.90;3.20;;;;;;;12.21;46.15;102057.06;5052090;28;20037;-61
2022/04/18 11:06:23;;;;;;;9.60;3.53;;;;;;;12.50;45.82;102073.06;5052220;28;20052;-61
2022/04/18 11:08:58;;;;;;;17.43;4.30;;;;;;;12.59;45.80;102071.34;5052000;28;20040;-64
2022/04/18 11:11:36;;;;;;;7.00;3.60;;;;;;;12.72;45.97;102063.84;5051525;28;20396;-61
2022/04/18 11:14:13;;;;;;;4.10;3.20;;;;;;;12.62;45.31;102061.19;5052207;28;20567;-62
2022/04/18 11:16:41;;;;;;;11.97;4.33;;;;;;;12.57;45.86;102070.66;5051737;28;20033;-62
2022/04/18 11:19:32;;;;;;;9.75;4.57;;;;;;;12.65;45.77;102074.28;5050607;28;20049;-63
2022/04/18 11:21:58;;;;;;;11.03;3.67;;;;;;;12.52;45.60;102063.06;5050357;28;20061;-64
2022/04/18 11:24:37;;;;;;;12.20;3.53;;;;;;;12.35;46.10;102077.13;5051906;28;20048;-62
2022/04/18 11:27:11;;;;;;;17.17;4.63;;;;;;;12.29;46.43;102077.72;5051729;28;20412;-64
2022/04/18 11:29:38;;;;;;;23.50;4.43;;;;;;;12.33;46.08;102063.09;5051965;28;20052;-61
2022/04/18 11:32:05;;;;;;;9.30;3.33;;;;;;;12.28;46.13;102043.97;5051820;28;20033;-60
2022/04/18 11:34:32;;;;;;;15.70;4.67;;;;;;;12.62;45.66;102069.22;5051726;28;20562;-64
2022/04/18 11:37:00;;;;;;;10.83;3.50;;;;;;;12.60;45.72;102065.84;5051688;28;20407;-62
2022/04/18 11:39:44;;;;;;;6.80;3.35;;;;;;;12.54;46.05;102031.69;5051582;28;20427;-62
2022/04/18 11:42:14;;;;;;;7.07;3.67;;;;;;;12.83;45.38;102049.47;5051615;28;20055;-64
2022/04/18 11:44:41;;;;;;;10.00;4.03;;;;;;;12.77;45.45;102058.09;5051816;28;20033;-63
2022/04/18 11:47:11;;;;;;;13.37;4.50;;;;;;;12.67;45.83;102050.06;5051561;28;20036;-64
2022/04/18 11:49:38;;;;;;;6.53;3.60;;;;;;;12.90;45.65;102055.91;5051663;28;20043;-63
2022/04/18 11:52:05;;;;;;;9.13;4.63;;;;;;;13.03;44.77;102053.78;5051342;28;20555;-64
2022/04/18 11:54:32;;;;;;;9.67;3.07;;;;;;;13.11;44.34;102059.22;5051721;28;20033;-63